Terminal Aerodrome Forecast
Issued by NWS Tuscon, AZ

Home | Current Version | Previous Version | Text Only | Print | Product List | Glossary On
Versions: 1 2 3 4 5 6 7 8 9 10 11 12 13 14 15
000
FTUS45 KTWC 012337
TAFDUG
TAF
KDUG 012337Z 0200/0224 16007KT P6SM SCT090 BKN250
     FM020300 35006KT P6SM SCT090 BKN250
     FM020700 VRB04KT P6SM SCT250
     FM021700 30006KT P6SM SCT070 SCT120
     FM022000 25009KT P6SM VCTS SCT050CB BKN100=

USA.gov is the U.S. government's official web portal to all federal, state and local government web resources and services.